createdAt,value
2023-01-30T00:01:15.970Z,100.00
2023-01-30T00:03:42.627Z,100.00
2023-01-30T00:06:09.961Z,100.00
2023-01-30T00:08:36.638Z,100.00
2023-01-30T00:11:05.391Z,100.00
2023-01-30T00:13:32.010Z,100.00
2023-01-30T00:15:58.678Z,100.00
2023-01-30T00:18:25.610Z,100.00
2023-01-30T00:21:00.144Z,100.00
2023-01-30T00:23:28.132Z,100.00
2023-01-30T00:25:55.675Z,100.00
2023-01-30T00:28:22.665Z,100.00
2023-01-30T00:30:50.686Z,100.00
2023-01-30T00:33:18.073Z,100.00
2023-01-30T00:35:46.880Z,100.00
2023-01-30T00:38:14.092Z,100.00
2023-01-30T00:40:41.249Z,100.00
2023-01-30T00:43:26.364Z,100.00
2023-01-30T00:46:12.660Z,100.00
2023-01-30T00:48:39.230Z,100.00
2023-01-30T00:51:05.841Z,100.00
2023-01-30T00:53:32.498Z,100.00
2023-01-30T00:55:59.343Z,100.00
2023-01-30T00:58:26.214Z,100.00
2023-01-30T01:00:53.303Z,100.00
2023-01-30T01:03:20.458Z,100.00
2023-01-30T01:05:47.557Z,100.00
2023-01-30T01:08:14.785Z,100.00
2023-01-30T01:10:41.662Z,100.00
2023-01-30T01:13:08.287Z,100.00
2023-01-30T01:15:35.122Z,100.00
2023-01-30T01:18:01.724Z,100.00
2023-01-30T01:20:28.737Z,100.00
2023-01-30T01:22:56.955Z,100.00
2023-01-30T01:25:24.568Z,100.00
2023-01-30T01:27:51.389Z,100.00
2023-01-30T01:30:18.685Z,100.00
2023-01-30T01:32:45.281Z,100.00
2023-01-30T01:35:12.018Z,100.00
2023-01-30T01:37:38.634Z,100.00
2023-01-30T01:40:25.089Z,100.00
2023-01-30T01:42:52.079Z,100.00
2023-01-30T01:45:25.039Z,100.00
2023-01-30T01:48:20.871Z,100.00
2023-01-30T01:50:54.923Z,100.00
2023-01-30T01:53:28.412Z,100.00
2023-01-30T01:55:59.411Z,100.00
2023-01-30T01:58:34.319Z,100.00
2023-01-30T02:01:01.440Z,100.00
2023-01-30T02:03:32.711Z,100.00
2023-01-30T02:06:02.690Z,100.00
2023-01-30T02:08:37.812Z,100.00
2023-01-30T02:11:16.879Z,100.00
2023-01-30T02:13:45.473Z,100.00
2023-01-30T02:16:12.142Z,100.00
2023-01-30T02:18:41.990Z,100.00
2023-01-30T02:21:30.315Z,100.00
2023-01-30T02:24:30.030Z,100.00
2023-01-30T02:27:08.742Z,100.00
2023-01-30T02:30:06.303Z,100.00
2023-01-30T02:33:11.578Z,100.00
2023-01-30T02:35:43.050Z,100.00
2023-01-30T02:38:25.510Z,100.00
2023-01-30T02:40:55.095Z,100.00
2023-01-30T02:43:33.499Z,100.00
2023-01-30T02:46:12.059Z,100.00
2023-01-30T02:48:47.813Z,100.00
2023-01-30T02:51:21.013Z,100.00
2023-01-30T02:53:48.708Z,100.00
2023-01-30T02:56:15.617Z,100.00
2023-01-30T02:58:48.245Z,100.00
2023-01-30T03:01:42.580Z,100.00
2023-01-30T03:04:09.202Z,100.00
2023-01-30T03:07:12.494Z,100.00
2023-01-30T03:09:57.653Z,100.00
2023-01-30T03:12:37.573Z,100.00
2023-01-30T03:15:10.039Z,100.00
2023-01-30T03:17:37.802Z,100.00
2023-01-30T03:20:05.161Z,100.00
2023-01-30T03:22:31.747Z,100.00
2023-01-30T03:24:58.398Z,100.00
2023-01-30T03:27:25.106Z,100.00
2023-01-30T03:29:51.691Z,100.00
2023-01-30T03:32:18.314Z,100.00
2023-01-30T03:34:44.903Z,100.00
2023-01-30T03:37:11.577Z,100.00
2023-01-30T03:39:38.283Z,100.00
2023-01-30T03:42:05.035Z,100.00
2023-01-30T03:44:31.617Z,100.00
2023-01-30T03:46:58.187Z,100.00
2023-01-30T03:49:24.775Z,100.00
2023-01-30T03:51:51.420Z,100.00
2023-01-30T03:54:18.031Z,100.00
2023-01-30T03:56:44.631Z,100.00
2023-01-30T03:59:11.333Z,100.00
2023-01-30T04:01:37.964Z,100.00
2023-01-30T04:04:04.759Z,100.00
2023-01-30T04:06:31.390Z,100.00
2023-01-30T04:08:58.030Z,100.00
2023-01-30T04:11:24.631Z,100.00
2023-01-30T04:13:51.423Z,100.00
2023-01-30T04:16:19.609Z,100.00
2023-01-30T04:18:46.317Z,100.00
2023-01-30T04:21:13.334Z,100.00
2023-01-30T04:23:40.413Z,100.00
2023-01-30T04:26:07.726Z,100.00
2023-01-30T04:28:34.946Z,100.00
2023-01-30T04:31:02.194Z,100.00
2023-01-30T04:33:29.009Z,100.00
2023-01-30T04:35:57.905Z,100.00
2023-01-30T04:38:26.139Z,100.00
2023-01-30T04:40:54.559Z,100.00
2023-01-30T04:43:22.454Z,100.00
2023-01-30T04:45:50.676Z,100.00
2023-01-30T04:48:18.781Z,100.00
2023-01-30T04:50:49.145Z,100.00
2023-01-30T04:53:16.934Z,100.00
2023-01-30T04:55:43.703Z,100.00
2023-01-30T04:58:10.369Z,100.00
2023-01-30T05:00:37.421Z,100.00
2023-01-30T05:03:04.647Z,100.00
2023-01-30T05:05:31.205Z,100.00
2023-01-30T05:07:57.870Z,100.00
2023-01-30T05:10:24.484Z,100.00
2023-01-30T05:12:51.127Z,100.00
2023-01-30T05:15:18.042Z,100.00
2023-01-30T05:17:44.880Z,100.00
2023-01-30T05:20:13.770Z,100.00
2023-01-30T05:22:40.411Z,100.00
2023-01-30T05:25:07.503Z,100.00
2023-01-30T05:27:34.125Z,100.00
2023-01-30T05:30:00.754Z,100.00
2023-01-30T05:32:30.460Z,100.00
2023-01-30T05:34:57.490Z,100.00
2023-01-30T05:37:24.641Z,100.00
2023-01-30T05:39:51.340Z,100.00
2023-01-30T05:42:18.063Z,100.00
2023-01-30T05:44:44.646Z,100.00
2023-01-30T05:47:11.217Z,100.00
2023-01-30T05:49:37.873Z,100.00
2023-01-30T05:52:04.596Z,100.00
2023-01-30T05:54:31.247Z,100.00
2023-01-30T05:56:57.897Z,100.00
2023-01-30T05:59:24.452Z,100.00
2023-01-30T06:01:51.113Z,100.00
2023-01-30T06:04:17.759Z,100.00
2023-01-30T06:06:44.359Z,100.00
2023-01-30T06:09:11.531Z,100.00
2023-01-30T06:11:38.221Z,100.00
2023-01-30T06:14:04.855Z,100.00
2023-01-30T06:16:31.509Z,100.00
2023-01-30T06:18:58.232Z,100.00
2023-01-30T06:21:24.865Z,100.00
2023-01-30T06:23:51.488Z,100.00
2023-01-30T06:26:18.115Z,100.00
2023-01-30T06:28:44.749Z,100.00
2023-01-30T06:31:11.724Z,100.00
2023-01-30T06:33:38.420Z,100.00
2023-01-30T06:36:05.254Z,100.00
2023-01-30T06:38:31.841Z,100.00
2023-01-30T06:40:58.393Z,100.00
2023-01-30T06:43:25.004Z,100.00
2023-01-30T06:45:51.686Z,100.00
2023-01-30T06:48:18.323Z,100.00
2023-01-30T06:50:46.670Z,100.00
2023-01-30T06:53:13.256Z,100.00
2023-01-30T06:55:39.792Z,100.00
2023-01-30T06:58:10.685Z,100.00
2023-01-30T07:00:40.121Z,100.00
2023-01-30T07:03:11.266Z,100.00
2023-01-30T07:05:42.088Z,100.00
2023-01-30T07:08:08.868Z,100.00
2023-01-30T07:10:36.084Z,100.00
2023-01-30T07:13:03.669Z,100.00
2023-01-30T07:15:30.818Z,100.00
2023-01-30T07:17:57.484Z,100.00
2023-01-30T07:20:24.456Z,100.00
2023-01-30T07:22:55.801Z,100.00
2023-01-30T07:25:24.815Z,100.00
2023-01-30T07:27:53.132Z,100.00
2023-01-30T07:30:20.118Z,100.00
2023-01-30T07:32:55.989Z,100.00
2023-01-30T07:35:23.621Z,100.00
2023-01-30T07:37:51.327Z,100.00
2023-01-30T07:40:19.571Z,100.00
2023-01-30T07:43:00.042Z,100.00
2023-01-30T07:45:34.773Z,100.00
2023-01-30T07:48:01.345Z,100.00
2023-01-30T07:50:28.053Z,100.00
2023-01-30T07:52:54.660Z,100.00
2023-01-30T07:55:21.523Z,100.00
2023-01-30T07:57:48.247Z,100.00
2023-01-30T08:00:15.940Z,100.00
2023-01-30T08:02:42.768Z,100.00
2023-01-30T08:05:09.765Z,100.00
2023-01-30T08:07:36.523Z,100.00
2023-01-30T08:10:03.954Z,100.00
2023-01-30T08:12:30.634Z,100.00
2023-01-30T08:14:57.219Z,100.00
2023-01-30T08:17:23.867Z,100.00
2023-01-30T08:19:50.490Z,100.00
2023-01-30T08:22:17.639Z,100.00
2023-01-30T08:24:44.254Z,100.00
2023-01-30T08:27:11.002Z,100.00
2023-01-30T08:29:37.671Z,100.00
2023-01-30T08:32:04.407Z,100.00
2023-01-30T08:34:31.195Z,100.00
2023-01-30T08:36:57.759Z,100.00
2023-01-30T08:39:24.341Z,100.00
2023-01-30T08:41:50.936Z,100.00
2023-01-30T08:44:17.537Z,100.00
2023-01-30T08:46:44.215Z,100.00
2023-01-30T08:49:11.669Z,100.00
2023-01-30T08:51:38.502Z,100.00
2023-01-30T08:54:07.598Z,100.00
2023-01-30T08:56:34.902Z,100.00
2023-01-30T08:59:01.679Z,100.00
2023-01-30T09:01:28.301Z,100.00
2023-01-30T09:03:54.873Z,100.00
2023-01-30T09:06:21.504Z,100.00
2023-01-30T09:08:48.103Z,100.00
2023-01-30T09:11:14.888Z,100.00
2023-01-30T09:13:43.636Z,100.00
2023-01-30T09:16:11.674Z,100.00
2023-01-30T09:18:42.418Z,100.00
2023-01-30T09:21:11.123Z,100.00
2023-01-30T09:23:38.468Z,100.00
2023-01-30T09:26:06.039Z,100.00
2023-01-30T09:28:33.621Z,100.00
2023-01-30T09:31:01.379Z,100.00
2023-01-30T09:33:28.527Z,100.00
2023-01-30T09:35:56.405Z,100.00
2023-01-30T09:38:23.046Z,100.00
2023-01-30T09:40:55.728Z,100.00
2023-01-30T09:43:47.419Z,100.00
2023-01-30T09:46:24.307Z,100.00
2023-01-30T09:48:58.046Z,100.00
2023-01-30T09:51:35.175Z,100.00
2023-01-30T09:54:24.588Z,100.00
2023-01-30T09:57:20.865Z,100.00
2023-01-30T09:59:56.085Z,100.00
2023-01-30T10:02:31.659Z,100.00
2023-01-30T10:05:02.100Z,100.00
2023-01-30T10:07:43.038Z,100.00
2023-01-30T10:10:18.727Z,100.00
2023-01-30T10:13:04.099Z,100.00
2023-01-30T10:16:13.211Z,100.00
2023-01-30T10:18:56.016Z,100.00
2023-01-30T10:21:44.477Z,100.00
2023-01-30T10:24:46.706Z,100.00
2023-01-30T10:27:16.824Z,100.00
2023-01-30T10:29:49.127Z,100.00
2023-01-30T10:32:18.463Z,100.00
2023-01-30T10:34:52.411Z,100.00
2023-01-30T10:37:26.579Z,100.00
2023-01-30T10:40:05.844Z,100.00
2023-01-30T10:42:55.665Z,100.00
2023-01-30T10:45:30.013Z,100.00
2023-01-30T10:48:24.678Z,100.00
2023-01-30T10:51:05.760Z,99.69
2023-01-30T10:53:50.722Z,98.27
2023-01-30T10:56:25.738Z,95.48
2023-01-30T10:59:10.451Z,95.27
2023-01-30T11:01:57.357Z,95.80
2023-01-30T11:04:48.875Z,94.48
2023-01-30T11:07:15.603Z,93.99
2023-01-30T11:09:44.031Z,93.50
2023-01-30T11:12:11.414Z,94.19
2023-01-30T11:14:58.796Z,93.00
2023-01-30T11:17:45.353Z,92.04
2023-01-30T11:20:16.599Z,87.92
2023-01-30T11:22:52.427Z,87.11
2023-01-30T11:25:22.928Z,89.30
2023-01-30T11:28:05.375Z,89.55
2023-01-30T11:30:36.389Z,89.35
2023-01-30T11:33:17.945Z,89.81
2023-01-30T11:35:44.461Z,90.47
2023-01-30T11:38:22.740Z,90.86
2023-01-30T11:40:49.357Z,91.05
2023-01-30T11:43:15.985Z,88.64
2023-01-30T11:45:48.945Z,89.99
2023-01-30T11:48:33.741Z,90.99
2023-01-30T11:51:11.132Z,91.20
2023-01-30T11:53:47.066Z,91.26
2023-01-30T11:56:39.927Z,90.84
2023-01-30T11:59:20.611Z,89.72
2023-01-30T12:01:47.276Z,88.72
2023-01-30T12:04:14.310Z,90.33
2023-01-30T12:06:43.216Z,89.40
2023-01-30T12:09:33.667Z,91.47
2023-01-30T12:12:00.418Z,93.49
2023-01-30T12:14:34.822Z,94.79
2023-01-30T12:17:22.486Z,92.91
2023-01-30T12:20:17.448Z,92.27
2023-01-30T12:23:15.116Z,94.61
2023-01-30T12:25:51.508Z,96.45
2023-01-30T12:28:43.926Z,95.04
2023-01-30T12:31:24.711Z,93.11
2023-01-30T12:33:51.327Z,93.04
2023-01-30T12:36:32.097Z,91.24
2023-01-30T12:39:13.985Z,90.43
2023-01-30T12:44:45.616Z,90.12
2023-01-30T12:47:12.136Z,91.68
2023-01-30T12:50:01.836Z,91.84
2023-01-30T12:52:47.145Z,92.21
2023-01-30T12:55:50.580Z,90.46
2023-01-30T12:58:38.954Z,90.81
2023-01-30T13:01:29.563Z,91.96
2023-01-30T13:04:19.794Z,90.53
2023-01-30T13:07:08.523Z,90.51
2023-01-30T13:10:02.707Z,91.84
2023-01-30T13:12:45.165Z,92.91
2023-01-30T13:15:20.752Z,93.84
2023-01-30T13:17:55.535Z,95.50
2023-01-30T13:20:46.539Z,96.84
2023-01-30T13:23:18.570Z,96.98
2023-01-30T13:25:59.051Z,97.19
2023-01-30T13:28:42.637Z,97.48
2023-01-30T13:31:14.442Z,97.67
2023-01-30T13:33:47.200Z,98.14
2023-01-30T13:36:39.705Z,99.20
2023-01-30T13:39:13.249Z,98.56
2023-01-30T13:41:46.120Z,99.51
2023-01-30T13:44:21.506Z,99.83
2023-01-30T13:46:51.622Z,100.00
2023-01-30T13:49:42.411Z,100.00
2023-01-30T13:52:41.951Z,100.00
2023-01-30T13:55:28.856Z,100.00
2023-01-30T13:58:08.377Z,100.00
2023-01-30T14:00:36.164Z,100.00
2023-01-30T14:03:05.814Z,100.00
2023-01-30T14:05:50.884Z,100.00
2023-01-30T14:08:23.010Z,100.00
2023-01-30T14:10:50.393Z,100.00
2023-01-30T14:13:18.059Z,100.00
2023-01-30T14:15:55.285Z,100.00
2023-01-30T14:18:28.679Z,100.00
2023-01-30T14:21:24.675Z,100.00
2023-01-30T14:23:57.604Z,100.00
2023-01-30T14:26:50.599Z,100.00
2023-01-30T14:29:38.814Z,100.00
2023-01-30T14:32:14.751Z,100.00
2023-01-30T14:34:48.538Z,100.00
2023-01-30T14:37:46.752Z,100.00
2023-01-30T14:40:22.170Z,100.00
2023-01-30T14:43:42.506Z,100.00
2023-01-30T14:46:18.120Z,100.00
2023-01-30T14:48:53.602Z,100.00
2023-01-30T14:51:36.641Z,100.00
2023-01-30T14:54:20.587Z,100.00
2023-01-30T14:56:50.969Z,100.00
2023-01-30T14:59:17.553Z,100.00
2023-01-30T15:01:54.143Z,100.00
2023-01-30T15:04:21.625Z,100.00
2023-01-30T15:06:49.678Z,100.00
2023-01-30T15:09:24.815Z,100.00
2023-01-30T15:12:04.962Z,100.00
2023-01-30T15:15:07.601Z,100.00
2023-01-30T15:17:37.168Z,100.00
2023-01-30T15:20:15.807Z,100.00
2023-01-30T15:23:04.972Z,100.00
2023-01-30T15:26:07.677Z,100.00
2023-01-30T15:28:34.347Z,100.00
2023-01-30T15:31:22.439Z,100.00
2023-01-30T15:33:51.336Z,100.00
2023-01-30T15:36:25.979Z,100.00
2023-01-30T15:39:03.277Z,100.00
2023-01-30T15:41:41.102Z,100.00
2023-01-30T15:44:31.493Z,100.00
2023-01-30T15:47:22.094Z,100.00
2023-01-30T15:49:57.100Z,100.00
2023-01-30T15:52:37.337Z,100.00
2023-01-30T15:55:04.667Z,100.00
2023-01-30T15:57:38.671Z,100.00
2023-01-30T16:00:11.610Z,100.00
2023-01-30T16:02:38.391Z,100.00
2023-01-30T16:05:18.289Z,100.00
2023-01-30T16:07:46.642Z,100.00
2023-01-30T16:10:16.288Z,100.00
2023-01-30T16:12:43.645Z,100.00
2023-01-30T16:15:19.988Z,100.00
2023-01-30T16:18:22.622Z,100.00
2023-01-30T16:21:02.672Z,100.00
2023-01-30T16:24:20.116Z,100.00
2023-01-30T16:26:50.376Z,100.00
2023-01-30T16:29:24.153Z,100.00
2023-01-30T16:31:52.760Z,100.00
2023-01-30T16:34:36.841Z,100.00
2023-01-30T16:37:07.822Z,100.00
2023-01-30T16:39:36.887Z,100.00
2023-01-30T16:42:21.821Z,100.00
2023-01-30T16:44:48.428Z,100.00
2023-01-30T16:47:34.679Z,100.00
2023-01-30T16:50:01.475Z,100.00
2023-01-30T16:52:44.241Z,100.00
2023-01-30T16:55:22.713Z,100.00
2023-01-30T16:58:02.658Z,100.00
2023-01-30T17:00:35.782Z,100.00
2023-01-30T17:03:05.650Z,100.00
2023-01-30T17:05:40.742Z,100.00
2023-01-30T17:08:40.059Z,100.00
2023-01-30T17:11:06.778Z,100.00
2023-01-30T17:13:42.449Z,100.00
2023-01-30T17:16:24.207Z,100.00
2023-01-30T17:18:54.893Z,100.00
2023-01-30T17:21:23.803Z,100.00
2023-01-30T17:24:00.842Z,100.00
2023-01-30T17:26:28.522Z,100.00
2023-01-30T17:28:55.164Z,100.00
2023-01-30T17:31:22.195Z,100.00
2023-01-30T17:33:48.859Z,100.00
2023-01-30T17:36:22.419Z,100.00
2023-01-30T17:38:51.114Z,100.00
2023-01-30T17:41:30.844Z,100.00
2023-01-30T17:43:58.188Z,100.00
2023-01-30T17:46:40.109Z,100.00
2023-01-30T17:49:09.652Z,100.00
2023-01-30T17:51:36.195Z,100.00
2023-01-30T17:54:02.902Z,100.00
2023-01-30T17:56:38.051Z,100.00
2023-01-30T17:59:08.696Z,100.00
2023-01-30T18:01:35.361Z,100.00
2023-01-30T18:04:02.015Z,100.00
2023-01-30T18:06:31.978Z,100.00
2023-01-30T18:08:58.641Z,100.00
2023-01-30T18:11:25.272Z,100.00
2023-01-30T18:13:52.244Z,100.00
2023-01-30T18:16:28.892Z,100.00
2023-01-30T18:18:55.505Z,100.00
2023-01-30T18:21:22.286Z,100.00
2023-01-30T18:23:50.085Z,100.00
2023-01-30T18:26:18.360Z,100.00
2023-01-30T18:28:45.514Z,100.00
2023-01-30T18:31:12.624Z,100.00
2023-01-30T18:33:41.141Z,100.00
2023-01-30T18:36:10.229Z,100.00
2023-01-30T18:38:36.802Z,100.00
2023-01-30T18:41:15.511Z,100.00
2023-01-30T18:43:43.250Z,100.00
2023-01-30T18:46:13.247Z,100.00
2023-01-30T18:48:40.099Z,100.00
2023-01-30T18:51:08.035Z,100.00
2023-01-30T18:53:35.470Z,100.00
2023-01-30T18:56:02.480Z,100.00
2023-01-30T18:58:31.530Z,100.00
2023-01-30T19:00:59.031Z,100.00
2023-01-30T19:03:26.626Z,100.00
2023-01-30T19:05:53.511Z,100.00
2023-01-30T19:08:20.184Z,100.00
2023-01-30T19:10:46.747Z,100.00
2023-01-30T19:13:31.885Z,100.00
2023-01-30T19:16:03.782Z,100.00
2023-01-30T19:18:31.847Z,100.00
2023-01-30T19:21:02.114Z,100.00
2023-01-30T19:23:30.467Z,100.00
2023-01-30T19:25:59.536Z,100.00
2023-01-30T19:28:27.172Z,100.00
2023-01-30T19:30:53.894Z,100.00
2023-01-30T19:33:21.193Z,100.00
2023-01-30T19:35:47.933Z,100.00
2023-01-30T19:38:14.915Z,100.00
2023-01-30T19:40:46.337Z,100.00
2023-01-30T19:43:13.622Z,100.00
2023-01-30T19:45:42.509Z,100.00
2023-01-30T19:48:11.021Z,100.00
2023-01-30T19:50:37.939Z,100.00
2023-01-30T19:53:04.873Z,100.00
2023-01-30T19:55:37.795Z,100.00
2023-01-30T19:58:04.881Z,100.00
2023-01-30T20:00:31.638Z,100.00
2023-01-30T20:02:58.368Z,100.00
2023-01-30T20:05:25.346Z,100.00
2023-01-30T20:07:51.949Z,100.00
2023-01-30T20:10:18.963Z,100.00
2023-01-30T20:12:45.828Z,100.00
2023-01-30T20:15:12.445Z,100.00
2023-01-30T20:17:39.167Z,100.00
2023-01-30T20:20:06.911Z,100.00
2023-01-30T20:22:33.861Z,100.00
2023-01-30T20:25:00.448Z,100.00
2023-01-30T20:27:27.347Z,100.00
2023-01-30T20:29:53.927Z,100.00
2023-01-30T20:32:20.661Z,100.00
2023-01-30T20:34:47.289Z,100.00
2023-01-30T20:37:13.923Z,100.00
2023-01-30T20:39:40.900Z,100.00
2023-01-30T20:42:07.597Z,100.00
2023-01-30T20:44:35.670Z,100.00
2023-01-30T20:47:02.695Z,100.00
2023-01-30T20:49:29.335Z,100.00
2023-01-30T20:51:55.953Z,100.00
2023-01-30T20:54:23.427Z,100.00
2023-01-30T20:56:52.921Z,100.00
2023-01-30T20:59:24.020Z,100.00
2023-01-30T21:01:52.000Z,100.00
2023-01-30T21:04:19.703Z,100.00
2023-01-30T21:06:47.136Z,100.00
2023-01-30T21:09:22.555Z,100.00
2023-01-30T21:11:51.157Z,100.00
2023-01-30T21:14:18.188Z,100.00
2023-01-30T21:16:45.250Z,100.00
2023-01-30T21:19:15.155Z,100.00
2023-01-30T21:22:07.474Z,100.00
2023-01-30T21:24:34.016Z,100.00
2023-01-30T21:27:00.620Z,100.00
2023-01-30T21:29:28.681Z,100.00
2023-01-30T21:31:57.231Z,100.00
2023-01-30T21:34:24.473Z,100.00
2023-01-30T21:37:09.565Z,100.00
2023-01-30T21:39:54.735Z,100.00
2023-01-30T21:42:40.463Z,100.00
2023-01-30T21:45:07.628Z,100.00
2023-01-30T21:47:34.260Z,100.00
2023-01-30T21:50:00.814Z,100.00
2023-01-30T21:52:27.496Z,100.00
2023-01-30T21:54:54.130Z,100.00
2023-01-30T21:57:20.701Z,100.00
2023-01-30T21:59:47.361Z,100.00
2023-01-30T22:02:13.928Z,100.00
2023-01-30T22:04:40.534Z,100.00
2023-01-30T22:07:07.133Z,100.00
2023-01-30T22:09:33.830Z,100.00
2023-01-30T22:12:00.389Z,100.00
2023-01-30T22:14:27.057Z,100.00
2023-01-30T22:16:53.713Z,100.00
2023-01-30T22:19:20.415Z,100.00
2023-01-30T22:21:47.065Z,100.00
2023-01-30T22:24:13.719Z,100.00
2023-01-30T22:26:40.838Z,100.00
2023-01-30T22:29:07.745Z,100.00
2023-01-30T22:31:36.565Z,100.00
2023-01-30T22:34:04.378Z,100.00
2023-01-30T22:36:33.088Z,100.00
2023-01-30T22:38:59.870Z,100.00
2023-01-30T22:41:28.297Z,100.00
2023-01-30T22:43:56.948Z,100.00
2023-01-30T22:46:30.153Z,100.00
2023-01-30T22:48:57.583Z,100.00
2023-01-30T22:51:26.717Z,100.00
2023-01-30T22:53:56.311Z,100.00
2023-01-30T22:56:27.641Z,100.00
2023-01-30T22:58:54.768Z,100.00
2023-01-30T23:01:22.954Z,100.00
2023-01-30T23:03:55.299Z,100.00
2023-01-30T23:06:22.839Z,100.00
2023-01-30T23:08:49.821Z,100.00
2023-01-30T23:11:19.699Z,100.00
2023-01-30T23:13:49.236Z,100.00
2023-01-30T23:16:17.873Z,100.00
2023-01-30T23:18:56.790Z,100.00
2023-01-30T23:21:29.019Z,100.00
2023-01-30T23:23:57.753Z,100.00
2023-01-30T23:26:26.510Z,100.00
2023-01-30T23:28:53.478Z,100.00
2023-01-30T23:31:23.020Z,100.00
2023-01-30T23:33:54.679Z,100.00
2023-01-30T23:36:21.784Z,100.00
2023-01-30T23:38:50.267Z,100.00
2023-01-30T23:41:19.963Z,100.00
2023-01-30T23:43:47.832Z,100.00
2023-01-30T23:46:17.873Z,100.00
2023-01-30T23:48:45.998Z,100.00
2023-01-30T23:51:14.423Z,100.00
2023-01-30T23:53:41.343Z,100.00
2023-01-30T23:56:08.242Z,100.00
2023-01-30T23:58:35.562Z,100.00
